DW1496 Weather Reports


Display with metric or nautical units.
time (UTC)temp
F
wind
direction
speed
MPH
gust
MPH
rain 1hr
in
rain 24hr
in
rain mn
in
humidity
%
barometer
mb
20191019225501 76 0 0.0 12.0 0.00 4.48 3.12 99 1011.5
20191019225000 76 1 3.0 12.0 0.02 4.48 3.12 99 1011.5
20191019224500 76 1 1.0 15.0 0.04 4.48 3.12 99 1011.6
20191019224001 76 1 4.0 22.0 0.07 4.48 3.12 99 1011.5
20191019223500 77 1 1.0 22.0 0.09 4.48 3.12 99 1011.4
20191019223001 77 1 4.0 13.0 0.09 4.48 3.12 99 1011.3
20191019222501 77 1 1.0 14.0 0.11 4.48 3.12 99 1011.2
20191019222001 77 1 2.0 15.0 0.11 4.48 3.12 99 1011.4
20191019221500 77 1 2.0 15.0 0.11 4.48 3.12 99 1011.1
20191019221001 77 1 1.0 9.0 0.11 4.48 3.12 99 1011.2
20191019220501 77 1 1.0 9.0 0.11 4.48 3.12 99 1011.3
20191019220001 77 1 3.0 10.0 0.11 4.48 3.12 99 1011.2
20191019215500 77 0 0.0 12.0 0.11 4.48 3.12 99 1011.3
20191019215001 77 1 2.0 13.0 0.11 4.46 3.10 99 1011.1
20191019214501 78 1 4.0 13.0 0.15 4.46 3.08 99 1011.1
20191019214001 78 1 3.0 10.0 0.26 4.44 3.06 99 1011.3
20191019213500 78 1 3.0 10.0 0.26 4.42 3.04 99 1011.1
20191019213001 77 1 5.0 12.0 0.28 4.42 3.04 99 1011.0
20191019212500 78 1 2.0 12.0 0.33 4.38 3.02 99 1011.1
20191019212001 78 1 3.0 12.0 0.41 4.38 3.02 99 1011.0
20191019211500 78 1 1.0 12.0 0.44 4.38 3.02 99 1010.8
20191019211001 78 1 1.0 11.0 0.44 4.38 3.02 99 1010.9
20191019210501 78 1 3.0 11.0 0.44 4.42 3.02 99 1011.0
20191019210001 78 1 3.0 9.0 0.44 4.42 3.02 99 1011.0
20191019205500 78 1 3.0 9.0 0.44 4.44 3.02 100 1010.8
20191019205001 78 1 1.0 8.0 0.39 4.38 2.97 100 1011.2
20191019204501 78 0 0.0 4.0 0.35 4.35 2.93 97 1010.9
20191019204001 78 0 0.0 4.0 0.22 4.22 2.80 97 1010.9
20191019203500 78 0 0.0 4.0 0.20 4.22 2.77 97 1010.9
20191019203001 78 0 0.0 8.0 0.17 4.27 2.75 96 1010.8
20191019202500 78 1 1.0 8.0 0.11 4.22 2.67 96 1010.9
20191019202001 79 1 4.0 8.0 0.04 4.18 2.60 96 1011.0
20191019201500 79 0 0.0 6.0 0.02 4.18 2.58 95 1011.0
20191019201001 79 0 0.0 6.0 0.02 4.22 2.58 95 1011.0
20191019200500 79 1 1.0 13.0 0.02 4.24 2.58 96 1011.0
20191019200000 79 1 2.0 13.0 0.02 4.24 2.58 96 1011.2
20191019195501 79 1 3.0 12.0 0.02 4.26 2.58 97 1011.2
20191019195001 78 1 3.0 12.0 0.02 4.27 2.58 100 1011.2
20191019194501 78 0 0.0 12.0 0.07 4.27 2.58 97 1011.2
20191019194000 78 1 3.0 12.0 0.09 4.27 2.58 97 1011.3
20191019193500 78 1 2.0 14.0 0.09 4.27 2.58 96 1011.3
20191019193001 78 1 2.0 16.0 0.09 4.27 2.58 95 1011.5
20191019192501 78 1 4.0 25.0 0.07 4.26 2.56 95 1011.5
20191019192002 78 1 8.0 25.0 0.09 4.26 2.56 96 1011.5
20191019191500 78 1 4.0 15.0 0.09 4.26 2.56 100 1011.5
20191019191000 78 1 2.0 15.0 0.09 4.26 2.56 99 1011.6
20191019190500 77 0 0.0 12.0 0.11 4.26 2.56 100 1011.6
20191019190000 76 1 2.0 12.0 0.11 4.26 2.56 100 1011.5
20191019185500 76 1 1.0 13.0 0.11 4.26 2.56 97 1011.6
20191019185001 77 0 0.0 13.0 0.11 4.26 2.56 96 1011.7
20191019184501 77 1 3.0 16.0 0.07 4.22 2.51 96 1011.9
20191019184000 77 1 4.0 16.0 0.04 4.20 2.49 95 1011.9
20191019183500 77 1 5.0 13.0 0.04 4.20 2.49 95 1011.9
20191019183001 77 1 3.0 16.0 0.04 4.20 2.49 95 1011.8
20191019182501 77 1 3.0 16.0 0.04 4.20 2.49 94 1011.8
20191019182001 77 1 3.0 16.0 0.02 4.18 2.47 94 1012.0
20191019181501 77 1 4.0 16.0 0.02 4.18 2.47 92 1011.9
20191019181001 77 1 5.0 18.0 0.02 4.18 2.47 92 1012.1
20191019180500 78 1 5.0 24.0 0.00 4.14 2.45 91 1012.3
20191019180001 78 1 5.0 24.0 0.00 4.14 2.45 90 1012.3
20191019175500 78 1 5.0 24.0 0.00 4.14 2.45 90 1012.5
20191019175002 78 1 5.0 24.0 0.00 4.14 2.45 91 1012.3
20191019174500 78 1 3.0 16.0 0.00 4.14 2.45 93 1012.5
20191019174001 78 1 8.0 16.0 0.00 4.14 2.45 93 1012.5
20191019173500 78 1 5.0 16.0 0.02 4.14 2.45 94 1012.4
20191019173001 78 1 3.0 14.0 0.07 4.14 2.45 95 1012.6
20191019172500 78 1 5.0 12.0 0.09 4.14 2.45 95 1012.7
20191019172003 77 1 2.0 11.0 0.09 4.14 2.45 95 1012.9
20191019171500 77 1 1.0 11.0 0.09 4.14 2.45 95 1013.0
20191019171001 77 1 1.0 15.0 0.09 4.14 2.45 97 1013.0
20191019170500 77 1 2.0 15.0 0.09 4.14 2.45 97 1013.2
20191019170000 76 1 3.0 15.0 0.09 4.14 2.45 97 1013.2
20191019165501 76 1 3.0 15.0 0.09 4.14 2.45 97 1013.3
20191019165001 76 1 2.0 12.0 0.09 4.14 2.45 96 1013.4
20191019164500 75 1 3.0 10.0 0.09 4.14 2.45 96 1013.4
20191019164001 75 0 0.0 23.0 0.09 4.14 2.45 94 1013.6
20191019163500 75 1 5.0 23.0 0.07 4.13 2.43 92 1013.7
20191019163001 76 1 10.0 25.0 0.02 4.09 2.38 91 1013.9
20191019162500 76 1 4.0 25.0 0.00 4.07 2.36 90 1013.9
20191019162001 76 1 5.0 22.0 0.00 4.07 2.36 89 1014.1
20191019161501 77 1 6.0 23.0 0.00 4.07 2.36 89 1014.0
20191019161000 77 1 5.0 23.0 0.00 4.07 2.36 91 1014.2
20191019160501 77 1 5.0 18.0 0.00 4.07 2.36 92 1014.1
20191019160001 76 1 5.0 15.0 0.00 4.07 2.36 93 1014.0
20191019155501 76 1 2.0 15.0 0.00 4.07 2.36 94 1014.0
20191019155001 76 1 5.0 21.0 0.00 4.07 2.36 95 1014.1
20191019154500 75 1 1.0 21.0 0.00 4.07 2.36 95 1014.0
20191019154001 75 1 3.0 13.0 0.00 4.07 2.36 96 1014.2
20191019153500 74 1 3.0 13.0 0.00 4.07 2.36 96 1014.3
20191019153001 74 1 5.0 12.0 0.00 4.07 2.36 96 1014.3
20191019152501 74 1 3.0 18.0 0.00 4.07 2.36 96 1014.4
20191019152001 74 1 2.0 18.0 0.00 4.07 2.36 95 1014.7
20191019151500 74 1 1.0 17.0 0.00 4.07 2.36 95 1014.6
20191019151001 74 1 5.0 25.0 0.00 4.07 2.36 95 1014.6
20191019150500 75 1 2.0 25.0 0.00 4.07 2.36 95 1014.7
20191019150002 74 1 3.0 18.0 0.00 4.07 2.36 96 1014.6
20191019145500 74 1 2.0 18.0 0.00 4.07 2.36 96 1014.7
20191019145001 74 1 4.0 18.0 0.00 4.07 2.36 96 1014.6
20191019144500 74 1 3.0 15.0 0.00 4.07 2.36 97 1014.5
20191019144001 74 1 4.0 13.0 0.00 4.07 2.36 97 1014.6
20191019143501 74 1 3.0 12.0 0.00 4.07 2.36 100 1014.7
20191019143001 74 1 2.0 15.0 0.00 4.07 2.36 100 1014.8
20191019142500 74 1 2.0 15.0 0.00 4.07 2.36 100 1014.8
20191019142001 74 1 3.0 12.0 0.00 4.07 2.36 99 1015.1
20191019141501 74 1 2.0 10.0 0.00 4.07 2.36 99 1015.1
20191019141001 74 0 0.0 10.0 0.00 4.07 2.36 99 1015.1
20191019140500 73 1 4.0 14.0 0.00 4.07 2.36 99 1015.0
20191019140001 73 1 3.0 14.0 0.00 4.07 2.36 99 1015.0
20191019135500 73 1 5.0 14.0 0.00 4.07 2.36 99 1014.9
20191019135001 73 1 1.0 10.0 0.00 4.07 2.36 99 1015.0
20191019134501 73 1 1.0 10.0 0.00 4.07 2.36 99 1015.3
20191019134001 73 0 0.0 13.0 0.00 4.07 2.36 99 1015.3
20191019133500 73 1 2.0 13.0 0.00 4.07 2.36 99 1015.1
20191019133001 73 1 3.0 14.0 0.00 4.07 2.36 99 1014.9
20191019132501 72 1 3.0 17.0 0.00 4.07 2.36 99 1014.7
20191019132001 72 1 3.0 17.0 0.00 4.07 2.36 99 1014.7
20191019131500 72 1 1.0 14.0 0.00 4.07 2.36 99 1015.1
20191019131000 72 1 3.0 10.0 0.00 4.07 2.36 99 1015.2
20191019130501 72 0 0.0 12.0 0.00 4.07 2.36 99 1015.7
20191019130001 72 1 1.0 12.0 0.00 4.07 2.36 99 1015.6
20191019125500 72 1 3.0 9.0 0.02 4.07 2.36 99 1015.3
20191019125001 72 1 2.0 9.0 0.02 4.07 2.36 99 1015.1
20191019124501 72 1 1.0 13.0 0.02 4.07 2.36 99 1014.8
20191019124001 72 1 3.0 18.0 0.04 4.07 2.36 99 1014.7
20191019123501 72 1 3.0 18.0 0.04 4.07 2.36 99 1014.7
20191019123001 72 1 2.0 21.0 0.07 4.07 2.36 99 1014.4
20191019122501 72 1 3.0 21.0 0.11 4.07 2.36 99 1014.2
20191019122001 72 1 3.0 11.0 0.13 4.07 2.36 99 1014.3
20191019121500 72 1 2.0 13.0 0.17 4.07 2.36 99 1014.1
20191019121001 72 1 1.0 13.0 0.24 4.07 2.36 99 1014.1
20191019120501 72 1 3.0 14.0 0.28 4.07 2.36 99 1014.2
20191019120002 71 1 3.0 14.0 0.35 4.07 2.36 99 1014.3
20191019115500 72 1 2.0 11.0 0.37 4.05 2.34 99 1014.3
20191019115001 71 1 1.0 11.0 0.37 4.05 2.34 99 1014.4
20191019114501 71 1 2.0 10.0 0.41 4.05 2.34 99 1014.5
20191019114001 71 1 1.0 12.0 0.57 4.01 2.32 99 1014.5
20191019113501 71 1 1.0 12.0 0.70 4.01 2.32 99 1014.5
20191019113001 71 1 1.0 11.0 0.72 4.00 2.29 99 1014.6
20191019112501 72 1 4.0 11.0 0.70 3.96 2.25 99 1014.8
20191019112001 71 1 2.0 6.0 0.65 3.90 2.21 99 1014.9
20191019111500 71 1 2.0 6.0 0.65 3.88 2.19 99 1015.1
20191019111001 71 1 2.0 5.0 0.63 3.83 2.12 99 1015.1
20191019110501 71 1 1.0 4.0 0.57 3.76 2.05 99 1015.0
20191019110001 71 0 0.0 4.0 0.52 3.70 1.99 99 1015.0
20191019105500 71 0 0.0 9.0 0.50 3.66 1.97 99 1014.8
20191019105001 71 0 0.0 10.0 0.56 3.66 1.97 99 1014.8
20191019104501 72 1 3.0 12.0 0.52 3.63 1.92 99 1014.8
20191019104001 71 1 4.0 15.0 0.37 3.40 1.70 99 1015.0
20191019103501 71 1 9.0 15.0 0.33 3.33 1.62 99 1014.8
20191019103002 72 1 4.0 14.0 0.31 3.27 1.57 99 1014.8
20191019102500 71 1 2.0 14.0 0.33 3.26 1.55 99 1014.7
20191019102001 71 1 4.0 13.0 0.37 3.26 1.55 99 1014.8
20191019101500 71 0 0.0 10.0 0.37 3.22 1.51 99 1014.8
20191019101002 71 1 1.0 8.0 0.37 3.18 1.49 99 1014.9
20191019100501 71 1 1.0 10.0 0.37 3.18 1.49 99 1015.1
20191019100003 71 1 2.0 10.0 0.35 3.16 1.46 99 1015.1
20191019095501 71 1 3.0 9.0 0.35 3.16 1.46 99 1015.3
20191019095002 71 1 4.0 8.0 0.31 3.13 1.42 99 1015.3
20191019094500 71 0 0.0 4.0 0.26 3.09 1.38 99 1015.1
20191019094001 71 1 1.0 5.0 0.24 3.03 1.33 99 1014.9
20191019093501 71 1 1.0 5.0 0.20 3.00 1.29 99 1014.9
20191019093002 71 0 0.0 4.0 0.15 2.94 1.25 99 1014.8
20191019092500 71 0 0.0 4.0 0.15 2.92 1.22 99 1015.0
20191019092001 71 1 2.0 4.0 0.13 2.89 1.18 99 1015.0
20191019091501 71 1 2.0 5.0 0.09 2.85 1.14 99 1015.1
20191019091002 71 0 0.0 5.0 0.07 2.81 1.11 99 1015.0
20191019090501 71 1 1.0 5.0 0.07 2.81 1.11 99 1014.9
20191019090001 71 0 0.0 3.0 0.07 2.81 1.11 99 1014.7
20191019085500 71 0 0.0 6.0 0.07 2.81 1.11 99 1014.7
20191019085001 71 0 0.0 6.0 0.07 2.81 1.11 99 1014.7
20191019084500 71 0 0.0 4.0 0.07 2.81 1.11 99 1014.9
20191019084001 71 0 0.0 5.0 0.04 2.79 1.09 99 1015.0
20191019083501 72 1 2.0 5.0 0.04 2.79 1.09 99 1014.9
20191019083001 71 1 2.0 5.0 0.02 2.78 1.07 99 1015.0
20191019082500 71 0 0.0 5.0 0.02 2.78 1.07 99 1015.2
20191019082001 71 0 0.0 5.0 0.00 2.76 1.05 99 1015.1
20191019081501 71 1 4.0 5.0 0.00 2.76 1.05 99 1015.0
20191019081001 71 0 0.0 6.0 0.02 2.76 1.05 99 1015.2
20191019080501 71 1 2.0 6.0 0.02 2.76 1.05 99 1015.1
20191019080002 71 0 0.0 6.0 0.02 2.76 1.05 99 1015.2
20191019075500 71 0 0.0 8.0 0.04 2.76 1.05 99 1015.1
20191019075001 71 1 2.0 8.0 0.07 2.76 1.05 99 1015.2
20191019074500 71 1 2.0 6.0 0.07 2.76 1.05 99 1015.3
20191019074001 71 1 2.0 8.0 0.09 2.76 1.05 99 1015.5
20191019073501 71 1 2.0 8.0 0.11 2.76 1.05 99 1015.1
20191019073001 71 1 2.0 11.0 0.13 2.76 1.05 99 1015.2
20191019072501 71 1 2.0 13.0 0.15 2.76 1.05 99 1015.1
20191019072000 70 1 4.0 14.0 0.17 2.76 1.05 99 1015.3
20191019071501 70 1 8.0 14.0 0.22 2.76 1.05 99 1014.9
20191019071001 71 1 1.0 9.0 0.22 2.74 1.03 99 1015.1
20191019070501 71 1 2.0 13.0 0.22 2.74 1.03 99 1015.2
20191019070001 70 1 8.0 13.0 0.24 2.74 1.03 99 1015.2
20191019065500 70 1 2.0 18.0 0.22 2.70 1.01 99 1015.4
20191019065001 71 1 6.0 18.0 0.22 2.68 0.98 99 1014.9
20191019064501 71 1 5.0 12.0 0.24 2.68 0.98 99 1015.6
20191019064001 70 1 1.0 12.0 0.22 2.66 0.96 99 1016.1
20191019063501 70 1 1.0 12.0 0.20 2.65 0.94 99 1016.1
20191019063001 70 1 4.0 13.0 0.20 2.63 0.92 99 1016.2
20191019062500 70 1 5.0 13.0 0.17 2.61 0.90 99 1016.1
20191019062001 70 1 5.0 11.0 0.15 2.57 0.87 99 1016.3
20191019061500 70 1 1.0 10.0 0.11 2.53 0.83 99 1016.5
20191019061001 70 1 2.0 13.0 0.09 2.52 0.81 99 1016.1
20191019060501 70 1 3.0 14.0 0.11 2.52 0.81 99 1016.1
20191019060001 70 1 2.0 14.0 0.09 2.50 0.79 99 1016.1
20191019055500 70 1 5.0 13.0 0.09 2.50 0.79 99 1016.0
20191019055001 70 1 3.0 14.0 0.09 2.46 0.76 99 1016.0
20191019054501 70 1 5.0 14.0 0.07 2.44 0.74 99 1016.1
20191019054001 70 1 6.0 17.0 0.09 2.44 0.74 99 1016.0
20191019053500 70 1 5.0 17.0 0.11 2.44 0.74 99 1016.0
20191019053001 69 1 2.0 13.0 0.09 2.42 0.72 99 1016.1
20191019052501 69 1 4.0 9.0 0.13 2.42 0.72 99 1016.2
20191019052001 69 1 3.0 11.0 0.22 2.42 0.72 99 1016.1
20191019051501 69 1 2.0 11.0 0.26 2.42 0.72 99 1016.3
20191019051001 69 1 4.0 11.0 0.52 2.42 0.72 99 1016.5
20191019050500 69 1 2.0 12.0 0.61 2.40 0.70 99 1016.6
20191019050001 69 1 2.0 12.0 0.70 2.40 0.70 99 1016.5
20191019045501 69 1 1.0 12.0 0.93 2.40 0.70 99 1016.8
20191019045001 69 1 3.0 12.0 1.09 2.39 0.68 99 1016.7
20191019044500 69 1 3.0 12.0 1.13 2.39 0.68 99 1016.7
20191019044001 69 0 0.0 12.0 1.17 2.37 0.66 99 1017.0
20191019043500 69 1 3.0 13.0 1.17 2.33 0.63 99 1017.0
20191019043001 69 1 5.0 15.0 1.18 2.33 0.63 99 1017.1
20191019042500 69 1 9.0 15.0 1.17 2.28 0.57 99 1017.3
20191019042002 69 1 5.0 13.0 1.09 2.20 0.50 99 1017.2
20191019041501 69 1 2.0 13.0 1.04 2.09 0.39 99 1017.4
20191019041001 68 1 4.0 13.0 0.83 1.89 0.17 100 1017.6
20191019040500 68 1 3.0 9.0 0.76 1.79 0.09 97 1017.1
20191019040006 68 0 0.0 8.0 0.70 1.70 0.00 97 1017.4
20191019035500 68 0 0.0 8.0 0.44 1.42 1.42 96 1017.4
20191019035001 68 0 0.0 10.0 0.33 1.29 1.29 97 1017.4
20191019034501 68 0 0.0 14.0 0.31 1.24 1.25 96 1017.2
20191019034002 68 1 2.0 14.0 0.26 1.20 1.20 96 1017.1
20191019033501 67 1 2.0 17.0 0.24 1.18 1.18 96 1017.0
20191019033002 67 1 6.0 17.0 0.22 1.17 1.16 95 1016.8
20191019032500 67 1 10.0 17.0 0.20 1.11 1.11 95 1016.7
20191019032001 67 1 4.0 13.0 0.17 1.09 1.09 95 1017.0
20191019031500 68 1 5.0 12.0 0.15 1.07 1.07 95 1017.2
20191019031001 68 1 4.0 9.0 0.15 1.05 1.05 95 1017.6
20191019030501 68 0 0.0 9.0 0.13 1.04 1.03 95 1017.9
20191019030003 68 1 3.0 12.0 0.11 1.00 1.01 95 1017.6
20191019025500 67 1 1.0 12.0 0.11 0.98 0.98 95 1017.8
20191019025002 68 1 5.0 13.0 0.09 0.96 0.96 95 1017.7
20191019024500 68 1 4.0 13.0 0.09 0.94 0.94 95 1017.7
20191019024001 68 1 3.0 9.0 0.09 0.94 0.94 95 1017.6
20191019023501 68 1 4.0 9.0 0.09 0.94 0.94 95 1017.9
20191019023001 68 0 0.0 5.0 0.09 0.94 0.94 95 1017.9
20191019022501 68 0 0.0 5.0 0.07 0.93 0.92 95 1018.0
20191019022002 68 0 0.0 4.0 0.07 0.93 0.92 94 1018.0
20191019021500 68 1 1.0 5.0 0.07 0.93 0.92 94 1017.9
20191019021001 68 1 1.0 5.0 0.04 0.89 0.90 95 1017.6
20191019020501 68 1 1.0 5.0 0.04 0.89 0.90 94 1017.6
20191019020002 68 0 0.0 4.0 0.07 0.89 0.90 94 1018.0
20191019015501 68 0 0.0 6.0 0.04 0.87 0.87 94 1017.6
20191019015002 68 0 0.0 6.0 0.04 0.87 0.87 94 1017.4
20191019014501 68 0 0.0 6.0 0.02 0.85 0.85 94 1017.4
20191019014002 68 1 1.0 6.0 0.02 0.85 0.85 94 1017.2
20191019013501 68 0 0.0 9.0 0.02 0.85 0.85 94 1017.2
20191019013002 68 0 0.0 9.0 0.02 0.85 0.85 94 1017.3
20191019012501 68 1 2.0 8.0 0.02 0.85 0.85 94 1017.3
20191019012001 67 1 2.0 9.0 0.02 0.85 0.85 94 1017.2
20191019011500 67 0 0.0 9.0 0.02 0.85 0.85 94 1017.1
20191019011001 67 0 0.0 9.0 0.04 0.85 0.85 94 1017.0
20191019010501 67 0 0.0 9.0 0.04 0.85 0.85 94 1016.8
20191019010002 67 1 3.0 11.0 0.02 0.83 0.83 94 1016.9
20191019005501 67 1 2.0 11.0 0.04 0.83 0.83 93 1017.1
20191019005001 67 1 2.0 11.0 0.15 0.83 0.83 93 1017.0
20191019004501 67 1 3.0 11.0 0.44 0.83 0.83 94 1017.0
20191019004002 67 1 1.0 10.0 0.48 0.83 0.83 94 1017.2
20191019003502 67 1 1.0 11.0 0.48 0.83 0.83 94 1017.2
20191019003001 67 1 4.0 14.0 0.48 0.83 0.83 94 1017.2
20191019002501 67 1 5.0 14.0 0.48 0.83 0.83 94 1017.2
20191019002002 67 1 6.0 14.0 0.48 0.83 0.83 94 1017.3
20191019001501 67 1 1.0 9.0 0.48 0.83 0.83 93 1017.2
20191019001001 67 1 3.0 11.0 0.46 0.81 0.81 93 1017.2
20191019000501 67 0 0.0 16.0 0.46 0.81 0.81 93 1017.3
20191019000001 67 1 4.0 16.0 0.46 0.81 0.81 92 1017.2
20191018235501 67 1 4.0 12.0 0.44 0.80 0.79 92 1017.1
20191018235002 67 1 5.0 11.0 0.28 0.63 0.63 92 1017.4
20191018234501 67 0 0.0 12.0 0.02 0.37 0.37 92 1017.6
20191018234002 67 1 6.0 12.0 0.00 0.35 0.35 92 1017.3
20191018233500 67 1 2.0 16.0 0.00 0.35 0.35 92 1017.1
20191018233001 67 1 6.0 16.0 0.00 0.35 0.35 92 1017.0
20191018232501 67 1 4.0 12.0 0.00 0.35 0.35 92 1017.0
20191018232002 67 1 1.0 12.0 0.00 0.35 0.35 92 1017.1
20191018231500 67 1 5.0 11.0 0.00 0.35 0.35 92 1017.0
20191018231001 67 1 3.0 11.0 0.00 0.35 0.35 92 1017.0
20191018230501 67 1 3.0 12.0 0.00 0.35 0.35 92 1017.1
20191018230002 67 1 3.0 12.0 0.00 0.35 0.35 92 1017.1